Roy, Utah
Current Conditions -  °F | °C
As of 11:53 PM on Wednesday 22 Oct 2014 (Local Time) from KOGD Reporting Station
Clear Clear  
Wind Chill: 44°   Ceiling: Unl
Heat Index: 47°   Visibility: 10mi
Dew Point: 27°   Wind: 7mph
Humidity: 46%   Direction: 170°S
Pressure: 30.16"   Gusts: NA
Location:  41.17°N, 112.02°W
Report Text: KOGD 230553Z 17006KT 10SM CLR 08/M03 A3016 RMK AO2 SLP192 T00831028 10150 20078 57002
Loading
Personal Weather Stations






























Interactive Weather Map
Tropical Storm Tracking
New forecast layout! Learn more

10-Day Weather Forecast

Advertisements
Track Severe Weather on mobile